Time;durP1;ratioP1;P1;durP2;ratioP2;P2;SDS_P1;SDS_P2;PMS_P1;PMS_P2;Temp;Humidity;BMP_temperature;BMP_pressure;BME280_temperature;BME280_humidity;BME280_pressure;Samples;Min_cycle;Max_cycle;Signal;HPM_P1;HPM_P2
2023/02/26 00:02:04;;;;;;;0.20;0.10;;;9.00;99.90;;;;;;20979774;28;20410;-67
2023/02/26 00:12:11;;;;;;;0.20;0.10;;;9.00;99.90;;;;;;20986644;28;20411;-65
2023/02/26 00:22:17;;;;;;;0.20;0.10;;;9.10;99.90;;;;;;21018138;28;20406;-66
2023/02/26 00:32:22;;;;;;;0.20;0.10;;;9.30;99.90;;;;;;20961474;28;20410;-65
2023/02/26 00:42:28;;;;;;;0.20;0.10;;;9.40;99.90;;;;;;20953094;28;20830;-66
2023/02/26 00:52:39;;;;;;;0.20;0.10;;;9.50;99.90;;;;;;21045541;28;20760;-66
2023/02/26 01:02:45;;;;;;;0.20;0.10;;;9.40;99.90;;;;;;21031362;28;20403;-66
2023/02/26 01:12:49;;;;;;;0.20;0.10;;;9.40;99.90;;;;;;21023925;28;20412;-66
2023/02/26 01:22:57;;;;;;;0.20;0.10;;;9.30;99.90;;;;;;21018529;28;20412;-66
2023/02/26 01:33:07;;;;;;;0.20;0.10;;;9.30;99.90;;;;;;21039345;28;20443;-66
2023/02/26 01:43:19;;;;;;;0.20;0.10;;;9.20;99.90;;;;;;21056686;28;20725;-66
2023/02/26 01:53:24;;;;;;;0.20;0.10;;;9.30;99.90;;;;;;21036822;28;20415;-66
2023/02/26 02:03:33;;;;;;;0.20;0.10;;;9.20;99.90;;;;;;21055467;28;20495;-66
2023/02/26 02:13:54;;;;;;;0.20;0.10;;;9.30;99.90;;;;;;21039048;28;20454;-66
2023/02/26 02:24:05;;;;;;;0.20;0.10;;;9.40;99.90;;;;;;21016167;28;20432;-66
2023/02/26 02:34:16;;;;;;;0.20;0.10;;;9.50;99.90;;;;;;20985714;28;20414;-66
2023/02/26 02:44:24;;;;;;;0.20;0.10;;;9.50;99.90;;;;;;20994918;28;20808;-65
2023/02/26 02:54:34;;;;;;;0.20;0.10;;;9.40;99.90;;;;;;21001477;28;20433;-66
2023/02/26 03:04:39;;;;;;;0.20;0.08;;;9.40;99.90;;;;;;20989533;28;20406;-67
2023/02/26 03:14:45;;;;;;;0.20;0.10;;;9.50;99.90;;;;;;21018360;28;20503;-67
2023/02/26 03:24:52;;;;;;;0.20;0.10;;;9.50;99.90;;;;;;21071168;28;20450;-66
2023/02/26 03:35:03;;;;;;;0.20;0.10;;;9.30;99.90;;;;;;21070960;28;20408;-66
2023/02/26 03:45:10;;;;;;;0.20;0.10;;;9.20;99.90;;;;;;21070018;28;20403;-66
2023/02/26 03:55:18;;;;;;;0.20;0.10;;;9.20;99.90;;;;;;21050829;28;20416;-67
2023/02/26 04:05:25;;;;;;;0.20;0.10;;;9.30;99.90;;;;;;21050314;28;20416;-66
2023/02/26 04:15:30;;;;;;;0.20;0.10;;;9.20;99.90;;;;;;21049562;28;20404;-67
2023/02/26 04:25:35;;;;;;;0.20;0.10;;;9.20;99.90;;;;;;21066689;28;20397;-66
2023/02/26 04:35:40;;;;;;;0.20;0.10;;;9.20;99.90;;;;;;21081288;28;20408;-66
2023/02/26 04:45:46;;;;;;;0.20;0.10;;;9.10;99.90;;;;;;21064754;28;20404;-67
2023/02/26 04:55:51;;;;;;;0.20;0.10;;;9.10;99.90;;;;;;21045126;28;20404;-67
2023/02/26 05:05:55;;;;;;;0.20;0.10;;;8.90;99.90;;;;;;21063694;28;20396;-67
2023/02/26 05:16:00;;;;;;;0.20;0.10;;;8.80;99.90;;;;;;21061124;28;20438;-66
2023/02/26 05:26:04;;;;;;;0.20;0.10;;;8.90;99.90;;;;;;21021590;28;20400;-67
2023/02/26 05:36:10;;;;;;;0.20;0.10;;;8.80;99.90;;;;;;21025271;28;20474;-66
2023/02/26 05:46:14;;;;;;;0.20;0.10;;;8.70;99.90;;;;;;21061086;28;20404;-66
2023/02/26 05:56:19;;;;;;;0.20;0.10;;;8.40;99.90;;;;;;21067757;28;20903;-66
2023/02/26 06:06:24;;;;;;;0.20;0.10;;;8.30;99.90;;;;;;21070903;28;20813;-66
2023/02/26 06:16:31;;;;;;;0.20;0.10;;;8.20;99.90;;;;;;21065137;28;20416;-66
2023/02/26 06:26:35;;;;;;;0.20;0.10;;;7.90;99.90;;;;;;21068601;28;20442;-67
2023/02/26 06:36:40;;;;;;;0.20;0.10;;;7.70;99.90;;;;;;21086674;28;20411;-67
2023/02/26 06:46:44;;;;;;;0.20;0.10;;;7.50;99.90;;;;;;21049268;28;20529;-66
2023/02/26 06:56:49;;;;;;;0.20;0.10;;;7.10;99.90;;;;;;21002479;28;20843;-66
2023/02/26 07:06:53;;;;;;;0.20;0.10;;;7.00;99.90;;;;;;21017363;28;20949;-67
2023/02/26 07:17:01;;;;;;;0.20;0.10;;;7.00;99.90;;;;;;21070521;28;21345;-65
2023/02/26 07:27:05;;;;;;;0.20;0.10;;;7.00;99.90;;;;;;21070696;28;20670;-68
2023/02/26 07:37:10;;;;;;;0.20;0.10;;;7.00;99.90;;;;;;21051373;28;20405;-66
2023/02/26 07:47:14;;;;;;;0.20;0.10;;;7.00;99.90;;;;;;21068529;28;20396;-67
2023/02/26 07:57:19;;;;;;;0.20;0.10;;;7.00;99.90;;;;;;21068367;28;20441;-66
2023/02/26 08:07:23;;;;;;;0.20;0.10;;;6.70;99.90;;;;;;21049388;28;20809;-66
2023/02/26 08:17:28;;;;;;;0.20;0.10;;;6.70;99.90;;;;;;21047692;28;20470;-66
2023/02/26 08:27:32;;;;;;;0.20;0.10;;;6.70;99.90;;;;;;21064995;28;20549;-66
2023/02/26 08:37:37;;;;;;;0.20;0.10;;;6.80;99.90;;;;;;21064675;28;20412;-66
2023/02/26 08:47:42;;;;;;;0.20;0.10;;;6.80;99.90;;;;;;21063803;28;20453;-67
2023/02/26 08:58:00;;;;;;;0.20;0.10;;;6.90;99.90;;;;;;21028201;28;20423;-65
2023/02/26 09:08:04;;;;;;;0.20;0.10;;;7.10;99.90;;;;;;20993830;28;20731;-65
2023/02/26 09:18:14;;;;;;;0.20;0.10;;;7.40;99.90;;;;;;21036024;28;20529;-66
2023/02/26 09:28:18;;;;;;;0.20;0.10;;;7.80;99.90;;;;;;21075319;28;20796;-66
2023/02/26 09:38:23;;;;;;;0.20;0.10;;;7.80;99.90;;;;;;21059579;28;20415;-67
2023/02/26 09:48:30;;;;;;;0.20;0.10;;;8.60;99.90;;;;;;21040657;28;20400;-67
2023/02/26 09:58:38;;;;;;;0.20;0.10;;;9.10;99.90;;;;;;21056897;28;20405;-66
2023/02/26 10:08:51;;;;;;;0.20;0.10;;;9.20;99.90;;;;;;21039707;28;20404;-66
2023/02/26 10:19:01;;;;;;;0.20;0.10;;;9.80;99.90;;;;;;21057171;28;20465;-66
2023/02/26 10:29:12;;;;;;;0.20;0.10;;;10.00;99.90;;;;;;21057268;28;20827;-66
2023/02/26 10:39:26;;;;;;;0.20;0.10;;;9.90;99.90;;;;;;21065545;28;20801;-67
2023/02/26 10:49:41;;;;;;;0.20;0.00;;;10.50;99.90;;;;;;21052237;28;20414;-66
2023/02/26 10:59:46;;;;;;;0.20;0.00;;;11.10;99.90;;;;;;21052724;28;20562;-67
2023/02/26 11:09:50;;;;;;;0.20;0.00;;;11.20;99.90;;;;;;21005433;28;20431;-67
2023/02/26 11:19:57;;;;;;;0.20;0.10;;;12.50;99.90;;;;;;21066977;28;20798;-66
2023/02/26 11:30:07;;;;;;;0.20;0.10;;;13.80;99.90;;;;;;21050376;28;20416;-68
2023/02/26 11:40:18;;;;;;;0.20;0.10;;;14.20;99.90;;;;;;21065570;28;20400;-69
2023/02/26 11:50:24;;;;;;;0.20;0.10;;;12.60;99.90;;;;;;20988333;28;20414;-69
2023/02/26 12:00:33;;;;;;;0.20;0.00;;;12.90;99.90;;;;;;20979867;28;20412;-67
2023/02/26 12:10:42;;;;;;;0.20;0.10;;;13.90;99.90;;;;;;20982120;28;20413;-67
2023/02/26 12:20:56;;;;;;;0.20;0.10;;;16.00;99.90;;;;;;20945363;28;20485;-68
2023/02/26 12:31:36;;;;;;;0.20;0.10;;;15.50;99.90;;;;;;21007244;28;20629;-67
2023/02/26 12:42:02;;;;;;;0.20;0.10;;;16.10;99.90;;;;;;21042993;28;20396;-67
2023/02/26 12:52:40;;;;;;;0.20;0.10;;;17.40;99.90;;;;;;21061490;28;20407;-69
2023/02/26 13:03:06;;;;;;;0.20;0.10;;;17.40;99.90;;;;;;21033887;28;20407;-69
2023/02/26 13:13:37;;;;;;;0.20;0.10;;;17.30;99.90;;;;;;20996610;28;20842;-70
2023/02/26 13:23:48;;;;;;;0.20;0.10;;;18.20;99.90;;;;;;21058442;28;20384;-67
2023/02/26 13:33:55;;;;;;;0.20;0.10;;;18.60;99.90;;;;;;21041483;28;20412;-69
2023/02/26 13:44:17;;;;;;;0.20;0.08;;;18.20;99.90;;;;;;21040233;28;20740;-69
2023/02/26 13:54:44;;;;;;;0.20;0.10;;;17.80;99.90;;;;;;21058327;28;20816;-69
2023/02/26 14:04:53;;;;;;;0.20;0.10;;;17.60;99.90;;;;;;21051595;28;20970;-69
2023/02/26 14:15:29;;;;;;;0.20;0.10;;;18.40;99.90;;;;;;21069223;28;20814;-70
2023/02/26 14:25:37;;;;;;;0.20;0.10;;;18.30;99.90;;;;;;21050248;28;20415;-69
2023/02/26 14:35:46;;;;;;;0.20;0.10;;;15.60;99.90;;;;;;20979856;28;20443;-68
2023/02/26 14:45:51;;;;;;;0.20;0.10;;;16.20;99.90;;;;;;20984862;28;20395;-68
2023/02/26 14:56:03;;;;;;;0.20;0.10;;;17.00;99.90;;;;;;20912512;28;20431;-69
2023/02/26 15:06:22;;;;;;;0.20;0.10;;;16.40;99.90;;;;;;20917423;28;20450;-68
2023/02/26 15:16:36;;;;;;;0.20;0.00;;;16.60;99.90;;;;;;20941609;28;20416;-69
2023/02/26 15:26:46;;;;;;;0.20;0.10;;;17.70;99.90;;;;;;20895552;28;20392;-69
2023/02/26 15:36:53;;;;;;;0.20;0.03;;;17.50;99.90;;;;;;21040178;28;20416;-68
2023/02/26 15:47:02;;;;;;;0.20;0.20;;;17.90;99.90;;;;;;21113253;28;20420;-68
2023/02/26 15:57:07;;;;;;;0.20;0.00;;;17.70;99.90;;;;;;21133167;28;20429;-69
2023/02/26 16:07:13;;;;;;;0.20;0.10;;;16.70;99.90;;;;;;21166687;27;20784;-68
2023/02/26 16:17:25;;;;;;;0.20;0.00;;;14.50;99.90;;;;;;21144075;28;20464;-67
2023/02/26 16:27:31;;;;;;;0.20;0.10;;;13.30;99.90;;;;;;21126537;28;20387;-68
2023/02/26 16:37:36;;;;;;;0.20;0.10;;;12.50;99.90;;;;;;21105316;28;20395;-68
2023/02/26 16:47:42;;;;;;;0.20;0.10;;;12.50;99.90;;;;;;21160434;27;20433;-69
2023/02/26 16:57:47;;;;;;;0.20;0.00;;;12.20;99.90;;;;;;21125224;28;20452;-68
2023/02/26 17:07:59;;;;;;;0.20;0.10;;;11.90;99.90;;;;;;21143791;28;20417;-68
2023/02/26 17:18:04;;;;;;;0.20;0.10;;;12.00;99.90;;;;;;21139624;28;20417;-68
2023/02/26 17:28:13;;;;;;;0.20;0.10;;;11.80;99.90;;;;;;21123164;28;20394;-68
2023/02/26 17:38:17;;;;;;;0.20;0.10;;;11.90;99.90;;;;;;21121952;28;20501;-68
2023/02/26 17:48:23;;;;;;;0.20;0.10;;;11.60;99.90;;;;;;21114476;28;20537;-68
2023/02/26 17:58:29;;;;;;;0.20;0.10;;;11.50;99.90;;;;;;21139560;28;20467;-68
2023/02/26 18:08:35;;;;;;;0.20;0.10;;;11.70;99.90;;;;;;21120565;28;20398;-68
2023/02/26 18:18:38;;;;;;;0.20;0.10;;;11.70;99.90;;;;;;21119779;28;20407;-68
2023/02/26 18:28:44;;;;;;;0.20;0.10;;;11.50;99.90;;;;;;21152008;28;20894;-66
2023/02/26 18:38:48;;;;;;;0.20;0.10;;;10.30;99.90;;;;;;21136965;28;20414;-67
2023/02/26 18:48:53;;;;;;;0.20;0.10;;;9.60;99.90;;;;;;21136423;28;20395;-66
2023/02/26 18:58:57;;;;;;;0.20;0.10;;;9.50;99.90;;;;;;21143442;28;20878;-66
2023/02/26 19:09:03;;;;;;;0.20;0.10;;;9.60;99.90;;;;;;21150708;28;20494;-67
2023/02/26 19:19:08;;;;;;;0.20;0.10;;;9.30;99.90;;;;;;21162705;27;20406;-66
2023/02/26 19:29:18;;;;;;;0.20;0.10;;;8.40;99.90;;;;;;21166997;27;20382;-67
2023/02/26 19:39:22;;;;;;;0.20;0.10;;;7.60;99.90;;;;;;21096215;28;20430;-67
2023/02/26 19:49:27;;;;;;;0.20;0.10;;;6.20;99.90;;;;;;21045745;28;20440;-67
2023/02/26 19:59:31;;;;;;;0.20;0.07;;;5.90;99.90;;;;;;21143758;28;20437;-68
2023/02/26 20:09:36;;;;;;;0.20;0.10;;;5.60;99.90;;;;;;21145399;28;20387;-65
2023/02/26 20:19:40;;;;;;;0.20;0.10;;;5.70;99.90;;;;;;21128411;28;20421;-66
2023/02/26 20:29:46;;;;;;;0.20;0.10;;;5.60;99.90;;;;;;21146358;28;20402;-67
2023/02/26 20:39:51;;;;;;;0.20;0.10;;;5.90;99.90;;;;;;21146051;28;20418;-67
2023/02/26 20:49:56;;;;;;;0.20;0.10;;;6.00;99.90;;;;;;21161124;27;20445;-67
2023/02/26 21:00:06;;;;;;;0.20;0.10;;;6.00;99.90;;;;;;21160230;27;20465;-66
2023/02/26 21:10:15;;;;;;;0.20;0.10;;;6.30;99.90;;;;;;21108706;28;20438;-67
2023/02/26 21:20:21;;;;;;;0.20;0.10;;;6.20;99.90;;;;;;21143611;28;20910;-68
2023/02/26 21:30:27;;;;;;;0.20;0.10;;;5.80;99.90;;;;;;21123596;28;20711;-67
2023/02/26 21:40:31;;;;;;;0.20;0.10;;;5.80;99.90;;;;;;21157974;27;20728;-69
2023/02/26 21:50:37;;;;;;;0.20;0.10;;;5.80;99.90;;;;;;21131479;27;20505;-68
2023/02/26 22:00:41;;;;;;;0.20;0.10;;;5.80;99.90;;;;;;21119847;28;20456;-70
2023/02/26 22:10:47;;;;;;;0.20;0.10;;;5.70;99.90;;;;;;21140410;28;20439;-69
2023/02/26 22:20:50;;;;;;;0.20;0.10;;;5.80;99.90;;;;;;21105424;28;20980;-70
2023/02/26 22:30:56;;;;;;;0.20;0.10;;;5.50;99.90;;;;;;21108440;28;20391;-70
2023/02/26 22:41:00;;;;;;;0.20;0.10;;;5.50;99.90;;;;;;21160900;28;20462;-70
2023/02/26 22:51:05;;;;;;;0.20;0.10;;;5.80;99.90;;;;;;21160305;28;20440;-67
2023/02/26 23:01:09;;;;;;;0.20;0.10;;;5.90;99.90;;;;;;21159713;28;20409;-68
2023/02/26 23:11:15;;;;;;;0.20;0.10;;;6.10;99.90;;;;;;21159364;28;20753;-67
2023/02/26 23:21:19;;;;;;;0.20;0.10;;;6.40;99.90;;;;;;21122923;28;20817;-67
2023/02/26 23:31:24;;;;;;;0.20;0.10;;;6.20;99.90;;;;;;21088502;28;20413;-67
2023/02/26 23:41:28;;;;;;;0.20;0.10;;;6.10;99.90;;;;;;21003325;28;20418;-66
2023/02/26 23:51:34;;;;;;;0.20;0.10;;;6.30;99.90;;;;;;20987901;28;20399;-65
